KGRB

Green Bay-Austin Straubel International Airport

Green Bay, Wisconsin, USA
KGRB 240520Z 2406/2506 03005KT P6SM SCT025 SCT040 TEMPO 2406/2410 BKN025 FM241500 VRB03KT P6SM FEW040 FM242100 17003KT P6SM SKC
Issued Valid From Valid To
Oct-24 @ 05:20 UTC
(34 minutes ago)
Oct-24 @ 06:00 UTC
(in 6 minutes)
Oct-25 @ 06:00 UTC
(in 24 hours)
Oct-24 @ 06:00 to Oct-24 @ 15:00
KGRB 240520Z 2406/2506 03005KT P6SM SCT025 SCT040
Wind Visibility Clouds
30° at 5 knots Greater than 6 miles
  • Scattered at 2,500' AGL
  • Scattered at 4,000' AGL
Temporary Oct-24 @ 06:00 to Oct-24 @ 10:00
TEMPO 2406/2410 BKN025
Clouds
  • Broken at 2,500' AGL
From Oct-24 @ 15:00 to Oct-24 @ 21:00
FM241500 VRB03KT P6SM FEW040
Wind Visibility Clouds
Variable at 3 knots Greater than 6 miles
  • Few at 4,000' AGL
From Oct-24 @ 21:00 to Oct-25 @ 06:00
FM242100 17003KT P6SM SKC
Wind Visibility Clouds
170° at 3 knots Greater than 6 miles
  • Clear skies
KGRB 240520Z 2406/2506 03005KT P6SM SCT025 SCT040 TEMPO 2406/2410 BKN025 FM241500 VRB03KT P6SM FEW040 FM242100 17003KT P6SM SKC
Issued Oct-24 @ 05:20 UTC
(34 minutes ago)
Valid From Oct-24 @ 06:00 UTC
(in 6 minutes)
Valid To Oct-25 @ 06:00 UTC
(in 24 hours)
Oct-24 @ 06:00 - Oct-24 @ 15:00
Wind Visibility
30° at 5 knots Greater than 6 miles
Clouds
  • Scattered at 2,500' AGL
  • Scattered at 4,000' AGL
Temporary Oct-24 @ 06:00 - Oct-24 @ 10:00
Clouds
  • Broken at 2,500' AGL
From Oct-24 @ 15:00 - Oct-24 @ 21:00
Wind Visibility
Variable at 3 knots Greater than 6 miles
Clouds
  • Few at 4,000' AGL
From Oct-24 @ 21:00 - Oct-25 @ 06:00
Wind Visibility
170° at 3 knots Greater than 6 miles
Clouds
  • Clear skies